Augusta/Daniel Field, Georgia
Current Conditions -  °F | °C
As of 12:53 PM on Friday 31 Oct 2014 (Local Time) from KDNL Reporting Station
Broken Clouds Broken Clouds  
Wind Chill: 69°   Ceiling: 6500
Heat Index: 69°   Visibility: 10mi
Dew Point: 48°   Wind: 5mph
Humidity: 47%   Direction: NA
Pressure: 29.88"   Gusts: NA
Location:  33.47°N, 82.03°W
Report Text: KDNL 311653Z AUTO VRB04KT 10SM BKN065 21/09 A2988 RMK AO2 SLP115 T02060089
Loading
Personal Weather Stations






























Interactive Weather Map
Tropical Storm Tracking
New forecast layout! Learn more

10-Day Weather Forecast

Advertisements
Track Severe Weather on mobile